sensor_id;sensor_type;location;lat;lon;timestamp;temperature;humidity
41664;DHT22;27353;50.906;7.248;2023-01-05T00:01:50;11.00;99.90
41664;DHT22;27353;50.906;7.248;2023-01-05T00:04:15;11.00;99.90
41664;DHT22;27353;50.906;7.248;2023-01-05T00:06:41;11.00;99.90
41664;DHT22;27353;50.906;7.248;2023-01-05T00:09:10;11.00;99.90
41664;DHT22;27353;50.906;7.248;2023-01-05T00:11:36;11.00;99.90
41664;DHT22;27353;50.906;7.248;2023-01-05T00:14:23;10.90;99.90
41664;DHT22;27353;50.906;7.248;2023-01-05T00:17:13;11.00;99.90
41664;DHT22;27353;50.906;7.248;2023-01-05T00:19:58;11.00;99.90
41664;DHT22;27353;50.906;7.248;2023-01-05T00:22:51;11.00;99.90
41664;DHT22;27353;50.906;7.248;2023-01-05T00:25:22;10.90;99.90
41664;DHT22;27353;50.906;7.248;2023-01-05T00:27:49;10.90;99.90
41664;DHT22;27353;50.906;7.248;2023-01-05T00:30:18;10.90;99.90
41664;DHT22;27353;50.906;7.248;2023-01-05T00:32:44;10.90;99.90
41664;DHT22;27353;50.906;7.248;2023-01-05T00:35:11;10.90;99.90
41664;DHT22;27353;50.906;7.248;2023-01-05T00:37:38;10.90;99.90
41664;DHT22;27353;50.906;7.248;2023-01-05T00:40:06;10.90;99.90
41664;DHT22;27353;50.906;7.248;2023-01-05T00:42:31;10.90;99.90
41664;DHT22;27353;50.906;7.248;2023-01-05T00:44:57;10.90;99.90
41664;DHT22;27353;50.906;7.248;2023-01-05T00:47:23;10.90;99.90
41664;DHT22;27353;50.906;7.248;2023-01-05T00:49:49;10.90;99.90
41664;DHT22;27353;50.906;7.248;2023-01-05T00:52:14;10.90;99.90
41664;DHT22;27353;50.906;7.248;2023-01-05T00:54:40;10.90;99.90
41664;DHT22;27353;50.906;7.248;2023-01-05T00:57:05;10.90;99.90
41664;DHT22;27353;50.906;7.248;2023-01-05T00:59:32;10.90;99.90
41664;DHT22;27353;50.906;7.248;2023-01-05T01:01:57;10.80;99.90
41664;DHT22;27353;50.906;7.248;2023-01-05T01:04:23;10.80;99.90
41664;DHT22;27353;50.906;7.248;2023-01-05T01:06:48;10.80;99.90
41664;DHT22;27353;50.906;7.248;2023-01-05T01:09:14;10.80;99.90
41664;DHT22;27353;50.906;7.248;2023-01-05T01:11:40;10.90;99.90
41664;DHT22;27353;50.906;7.248;2023-01-05T01:14:07;10.80;99.90
41664;DHT22;27353;50.906;7.248;2023-01-05T01:16:33;10.80;99.90
41664;DHT22;27353;50.906;7.248;2023-01-05T01:18:59;10.80;99.90
41664;DHT22;27353;50.906;7.248;2023-01-05T01:21:25;10.80;99.90
41664;DHT22;27353;50.906;7.248;2023-01-05T01:23:51;10.80;99.90
41664;DHT22;27353;50.906;7.248;2023-01-05T01:26:16;10.80;99.90
41664;DHT22;27353;50.906;7.248;2023-01-05T01:28:45;10.80;99.90
41664;DHT22;27353;50.906;7.248;2023-01-05T01:31:10;10.80;99.90
41664;DHT22;27353;50.906;7.248;2023-01-05T01:33:38;10.80;99.90
41664;DHT22;27353;50.906;7.248;2023-01-05T01:36:04;10.80;99.90
41664;DHT22;27353;50.906;7.248;2023-01-05T01:38:30;10.70;99.90
41664;DHT22;27353;50.906;7.248;2023-01-05T01:40:56;10.70;99.90
41664;DHT22;27353;50.906;7.248;2023-01-05T01:43:49;10.70;99.90
41664;DHT22;27353;50.906;7.248;2023-01-05T01:46:16;10.70;99.90
41664;DHT22;27353;50.906;7.248;2023-01-05T01:48:55;10.70;99.90
41664;DHT22;27353;50.906;7.248;2023-01-05T01:51:35;10.70;99.90
41664;DHT22;27353;50.906;7.248;2023-01-05T01:54:04;10.70;99.90
41664;DHT22;27353;50.906;7.248;2023-01-05T01:56:43;10.70;99.90
41664;DHT22;27353;50.906;7.248;2023-01-05T01:59:10;10.60;99.90
41664;DHT22;27353;50.906;7.248;2023-01-05T02:01:36;10.70;99.90
41664;DHT22;27353;50.906;7.248;2023-01-05T02:04:02;10.70;99.90
41664;DHT22;27353;50.906;7.248;2023-01-05T02:06:29;10.60;99.90
41664;DHT22;27353;50.906;7.248;2023-01-05T02:08:55;10.60;99.90
41664;DHT22;27353;50.906;7.248;2023-01-05T02:14:21;10.70;99.90
41664;DHT22;27353;50.906;7.248;2023-01-05T02:19:42;10.70;99.90
41664;DHT22;27353;50.906;7.248;2023-01-05T02:36:18;10.60;99.90
41664;DHT22;27353;50.906;7.248;2023-01-05T02:39:14;10.60;99.90
41664;DHT22;27353;50.906;7.248;2023-01-05T02:41:47;10.60;99.90
41664;DHT22;27353;50.906;7.248;2023-01-05T02:44:17;10.60;99.90
41664;DHT22;27353;50.906;7.248;2023-01-05T02:46:44;10.60;99.90
41664;DHT22;27353;50.906;7.248;2023-01-05T02:49:10;10.60;99.90
41664;DHT22;27353;50.906;7.248;2023-01-05T02:51:39;10.60;99.90
41664;DHT22;27353;50.906;7.248;2023-01-05T02:54:14;10.60;99.90
41664;DHT22;27353;50.906;7.248;2023-01-05T02:56:51;10.50;99.90
41664;DHT22;27353;50.906;7.248;2023-01-05T02:59:35;10.50;99.90
41664;DHT22;27353;50.906;7.248;2023-01-05T03:02:07;10.50;99.90
41664;DHT22;27353;50.906;7.248;2023-01-05T03:04:38;10.60;99.90
41664;DHT22;27353;50.906;7.248;2023-01-05T03:07:10;10.50;99.90
41664;DHT22;27353;50.906;7.248;2023-01-05T03:09:38;10.50;99.90
41664;DHT22;27353;50.906;7.248;2023-01-05T03:12:22;10.50;99.90
41664;DHT22;27353;50.906;7.248;2023-01-05T03:17:56;10.60;99.90
41664;DHT22;27353;50.906;7.248;2023-01-05T03:20:25;10.50;99.90
41664;DHT22;27353;50.906;7.248;2023-01-05T03:22:52;10.50;99.90
41664;DHT22;27353;50.906;7.248;2023-01-05T03:25:39;10.50;99.90
41664;DHT22;27353;50.906;7.248;2023-01-05T03:28:28;10.50;99.90
41664;DHT22;27353;50.906;7.248;2023-01-05T03:31:18;10.50;99.90
41664;DHT22;27353;50.906;7.248;2023-01-05T03:34:16;10.50;99.90
41664;DHT22;27353;50.906;7.248;2023-01-05T03:37:06;10.40;99.90
41664;DHT22;27353;50.906;7.248;2023-01-05T03:39:35;10.50;99.90
41664;DHT22;27353;50.906;7.248;2023-01-05T03:42:02;10.50;99.90
41664;DHT22;27353;50.906;7.248;2023-01-05T03:44:29;10.50;99.90
41664;DHT22;27353;50.906;7.248;2023-01-05T03:46:55;10.40;99.90
41664;DHT22;27353;50.906;7.248;2023-01-05T03:49:21;10.50;99.90
41664;DHT22;27353;50.906;7.248;2023-01-05T03:51:46;10.50;99.90
41664;DHT22;27353;50.906;7.248;2023-01-05T03:54:12;10.50;99.90
41664;DHT22;27353;50.906;7.248;2023-01-05T03:56:37;10.40;99.90
41664;DHT22;27353;50.906;7.248;2023-01-05T03:59:03;10.40;99.90
41664;DHT22;27353;50.906;7.248;2023-01-05T04:01:29;10.40;99.90
41664;DHT22;27353;50.906;7.248;2023-01-05T04:03:54;10.50;99.90
41664;DHT22;27353;50.906;7.248;2023-01-05T04:06:20;10.40;99.90
41664;DHT22;27353;50.906;7.248;2023-01-05T04:08:45;10.50;99.90
41664;DHT22;27353;50.906;7.248;2023-01-05T04:11:15;10.50;99.90
41664;DHT22;27353;50.906;7.248;2023-01-05T04:13:41;10.50;99.90
41664;DHT22;27353;50.906;7.248;2023-01-05T04:16:07;10.50;99.90
41664;DHT22;27353;50.906;7.248;2023-01-05T04:18:32;10.40;99.90
41664;DHT22;27353;50.906;7.248;2023-01-05T04:20:58;10.40;99.90
41664;DHT22;27353;50.906;7.248;2023-01-05T04:23:24;10.40;99.90
41664;DHT22;27353;50.906;7.248;2023-01-05T04:25:49;10.50;99.90
41664;DHT22;27353;50.906;7.248;2023-01-05T04:28:15;10.50;99.90
41664;DHT22;27353;50.906;7.248;2023-01-05T04:30:44;10.50;99.90
41664;DHT22;27353;50.906;7.248;2023-01-05T04:33:13;10.50;99.90
41664;DHT22;27353;50.906;7.248;2023-01-05T04:35:38;10.40;99.90
41664;DHT22;27353;50.906;7.248;2023-01-05T04:38:04;10.40;99.90
41664;DHT22;27353;50.906;7.248;2023-01-05T04:40:30;10.40;99.90
41664;DHT22;27353;50.906;7.248;2023-01-05T04:42:55;10.30;99.90
41664;DHT22;27353;50.906;7.248;2023-01-05T04:45:21;10.20;99.90
41664;DHT22;27353;50.906;7.248;2023-01-05T04:47:47;10.10;99.90
41664;DHT22;27353;50.906;7.248;2023-01-05T04:50:12;10.10;99.90
41664;DHT22;27353;50.906;7.248;2023-01-05T04:52:38;10.00;99.90
41664;DHT22;27353;50.906;7.248;2023-01-05T04:55:04;10.00;99.90
41664;DHT22;27353;50.906;7.248;2023-01-05T04:57:30;10.00;99.90
41664;DHT22;27353;50.906;7.248;2023-01-05T04:59:56;10.00;99.90
41664;DHT22;27353;50.906;7.248;2023-01-05T05:02:21;10.00;99.90
41664;DHT22;27353;50.906;7.248;2023-01-05T05:04:47;10.00;99.90
41664;DHT22;27353;50.906;7.248;2023-01-05T05:07:13;10.00;99.90
41664;DHT22;27353;50.906;7.248;2023-01-05T05:09:38;10.00;99.90
41664;DHT22;27353;50.906;7.248;2023-01-05T05:12:04;10.10;99.90
41664;DHT22;27353;50.906;7.248;2023-01-05T05:14:29;10.10;99.90
41664;DHT22;27353;50.906;7.248;2023-01-05T05:16:55;10.10;99.90
41664;DHT22;27353;50.906;7.248;2023-01-05T05:19:21;10.10;99.90
41664;DHT22;27353;50.906;7.248;2023-01-05T05:21:46;10.10;99.90
41664;DHT22;27353;50.906;7.248;2023-01-05T05:24:12;10.10;99.90
41664;DHT22;27353;50.906;7.248;2023-01-05T05:26:37;10.10;99.90
41664;DHT22;27353;50.906;7.248;2023-01-05T05:29:03;10.10;99.90
41664;DHT22;27353;50.906;7.248;2023-01-05T05:31:29;10.10;99.90
41664;DHT22;27353;50.906;7.248;2023-01-05T05:33:54;10.10;99.90
41664;DHT22;27353;50.906;7.248;2023-01-05T05:36:20;10.00;99.90
41664;DHT22;27353;50.906;7.248;2023-01-05T05:38:45;10.00;99.90
41664;DHT22;27353;50.906;7.248;2023-01-05T05:41:11;9.90;99.90
41664;DHT22;27353;50.906;7.248;2023-01-05T05:43:37;10.00;99.90
41664;DHT22;27353;50.906;7.248;2023-01-05T05:46:03;10.00;99.90
41664;DHT22;27353;50.906;7.248;2023-01-05T05:48:28;10.00;99.90
41664;DHT22;27353;50.906;7.248;2023-01-05T05:50:54;9.90;99.90
41664;DHT22;27353;50.906;7.248;2023-01-05T05:53:20;9.90;99.90
41664;DHT22;27353;50.906;7.248;2023-01-05T05:55:49;9.90;99.90
41664;DHT22;27353;50.906;7.248;2023-01-05T05:58:18;9.90;99.90
41664;DHT22;27353;50.906;7.248;2023-01-05T06:00:45;9.90;99.90
41664;DHT22;27353;50.906;7.248;2023-01-05T06:03:10;10.00;99.90
41664;DHT22;27353;50.906;7.248;2023-01-05T06:05:36;10.00;99.90
41664;DHT22;27353;50.906;7.248;2023-01-05T06:08:02;10.00;99.90
41664;DHT22;27353;50.906;7.248;2023-01-05T06:10:28;10.00;99.90
41664;DHT22;27353;50.906;7.248;2023-01-05T06:12:54;10.00;99.90
41664;DHT22;27353;50.906;7.248;2023-01-05T06:15:21;10.00;99.90
41664;DHT22;27353;50.906;7.248;2023-01-05T06:17:47;10.00;99.90
41664;DHT22;27353;50.906;7.248;2023-01-05T06:20:13;10.10;99.90
41664;DHT22;27353;50.906;7.248;2023-01-05T06:22:40;10.10;99.90
41664;DHT22;27353;50.906;7.248;2023-01-05T06:25:06;10.10;99.90
41664;DHT22;27353;50.906;7.248;2023-01-05T06:27:33;10.10;99.90
41664;DHT22;27353;50.906;7.248;2023-01-05T06:29:58;10.10;99.90
41664;DHT22;27353;50.906;7.248;2023-01-05T06:32:24;10.10;99.90
41664;DHT22;27353;50.906;7.248;2023-01-05T06:34:50;10.10;99.90
41664;DHT22;27353;50.906;7.248;2023-01-05T06:37:15;10.10;99.90
41664;DHT22;27353;50.906;7.248;2023-01-05T06:39:41;10.10;99.90
41664;DHT22;27353;50.906;7.248;2023-01-05T06:42:06;10.10;99.90
41664;DHT22;27353;50.906;7.248;2023-01-05T06:44:32;10.10;99.90
41664;DHT22;27353;50.906;7.248;2023-01-05T06:46:57;10.20;99.90
41664;DHT22;27353;50.906;7.248;2023-01-05T06:49:23;10.10;99.90
41664;DHT22;27353;50.906;7.248;2023-01-05T06:51:48;10.10;99.90
41664;DHT22;27353;50.906;7.248;2023-01-05T06:54:14;10.10;99.90
41664;DHT22;27353;50.906;7.248;2023-01-05T06:56:40;10.20;99.90
41664;DHT22;27353;50.906;7.248;2023-01-05T06:59:05;10.10;99.90
41664;DHT22;27353;50.906;7.248;2023-01-05T07:01:31;10.10;99.90
41664;DHT22;27353;50.906;7.248;2023-01-05T07:03:57;10.10;99.90
41664;DHT22;27353;50.906;7.248;2023-01-05T07:06:22;10.20;99.90
41664;DHT22;27353;50.906;7.248;2023-01-05T07:08:48;10.20;99.90
41664;DHT22;27353;50.906;7.248;2023-01-05T07:11:13;10.10;99.90
41664;DHT22;27353;50.906;7.248;2023-01-05T07:13:39;10.10;99.90
41664;DHT22;27353;50.906;7.248;2023-01-05T07:16:05;10.10;99.90
41664;DHT22;27353;50.906;7.248;2023-01-05T07:18:31;10.10;99.90
41664;DHT22;27353;50.906;7.248;2023-01-05T07:20:59;10.10;99.90
41664;DHT22;27353;50.906;7.248;2023-01-05T07:23:25;10.10;99.90
41664;DHT22;27353;50.906;7.248;2023-01-05T07:25:50;10.10;99.90
41664;DHT22;27353;50.906;7.248;2023-01-05T07:28:16;10.10;99.90
41664;DHT22;27353;50.906;7.248;2023-01-05T07:30:41;10.10;99.90
41664;DHT22;27353;50.906;7.248;2023-01-05T07:33:07;10.10;99.90
41664;DHT22;27353;50.906;7.248;2023-01-05T07:35:32;10.10;99.90
41664;DHT22;27353;50.906;7.248;2023-01-05T07:37:58;10.10;99.90
41664;DHT22;27353;50.906;7.248;2023-01-05T07:40:25;10.10;99.90
41664;DHT22;27353;50.906;7.248;2023-01-05T07:42:52;10.10;99.90
41664;DHT22;27353;50.906;7.248;2023-01-05T07:45:18;10.10;99.90
41664;DHT22;27353;50.906;7.248;2023-01-05T07:47:44;10.10;99.90
41664;DHT22;27353;50.906;7.248;2023-01-05T07:50:10;10.10;99.90
41664;DHT22;27353;50.906;7.248;2023-01-05T07:52:36;10.10;99.90
41664;DHT22;27353;50.906;7.248;2023-01-05T07:55:03;10.10;99.90
41664;DHT22;27353;50.906;7.248;2023-01-05T07:57:29;10.10;99.90
41664;DHT22;27353;50.906;7.248;2023-01-05T07:59:55;10.10;99.90
41664;DHT22;27353;50.906;7.248;2023-01-05T08:02:20;10.10;99.90
41664;DHT22;27353;50.906;7.248;2023-01-05T08:04:46;10.10;99.90
41664;DHT22;27353;50.906;7.248;2023-01-05T08:07:11;10.10;99.90
41664;DHT22;27353;50.906;7.248;2023-01-05T08:09:39;10.10;99.90
41664;DHT22;27353;50.906;7.248;2023-01-05T08:12:23;10.10;99.90
41664;DHT22;27353;50.906;7.248;2023-01-05T08:14:48;10.20;99.90
41664;DHT22;27353;50.906;7.248;2023-01-05T08:17:14;10.10;99.90
41664;DHT22;27353;50.906;7.248;2023-01-05T08:19:39;10.20;99.90
41664;DHT22;27353;50.906;7.248;2023-01-05T08:22:05;10.20;99.90
41664;DHT22;27353;50.906;7.248;2023-01-05T08:24:31;10.20;99.90
41664;DHT22;27353;50.906;7.248;2023-01-05T08:26:56;10.20;99.90
41664;DHT22;27353;50.906;7.248;2023-01-05T08:29:22;10.20;99.90
41664;DHT22;27353;50.906;7.248;2023-01-05T08:31:47;10.20;99.90
41664;DHT22;27353;50.906;7.248;2023-01-05T08:34:13;10.20;99.90
41664;DHT22;27353;50.906;7.248;2023-01-05T08:36:39;10.20;99.90
41664;DHT22;27353;50.906;7.248;2023-01-05T08:39:05;10.20;99.90
41664;DHT22;27353;50.906;7.248;2023-01-05T08:41:35;10.20;99.90
41664;DHT22;27353;50.906;7.248;2023-01-05T08:44:03;10.30;99.90
41664;DHT22;27353;50.906;7.248;2023-01-05T08:46:31;10.30;99.90
41664;DHT22;27353;50.906;7.248;2023-01-05T08:48:59;10.30;99.90
41664;DHT22;27353;50.906;7.248;2023-01-05T08:51:25;10.30;99.90
41664;DHT22;27353;50.906;7.248;2023-01-05T08:53:51;10.30;99.90
41664;DHT22;27353;50.906;7.248;2023-01-05T08:56:18;10.20;99.90
41664;DHT22;27353;50.906;7.248;2023-01-05T08:58:43;10.20;99.90
41664;DHT22;27353;50.906;7.248;2023-01-05T09:01:15;10.30;99.90
41664;DHT22;27353;50.906;7.248;2023-01-05T09:03:41;10.30;99.90
41664;DHT22;27353;50.906;7.248;2023-01-05T09:06:08;10.30;99.90
41664;DHT22;27353;50.906;7.248;2023-01-05T09:08:36;10.30;99.90
41664;DHT22;27353;50.906;7.248;2023-01-05T09:11:16;10.40;99.90
41664;DHT22;27353;50.906;7.248;2023-01-05T09:13:50;10.50;99.90
41664;DHT22;27353;50.906;7.248;2023-01-05T09:16:18;10.60;99.90
41664;DHT22;27353;50.906;7.248;2023-01-05T09:18:45;10.70;99.90
41664;DHT22;27353;50.906;7.248;2023-01-05T09:21:11;10.80;99.90
41664;DHT22;27353;50.906;7.248;2023-01-05T09:23:38;10.80;99.90
41664;DHT22;27353;50.906;7.248;2023-01-05T09:26:05;10.70;99.90
41664;DHT22;27353;50.906;7.248;2023-01-05T09:28:31;10.70;99.90
41664;DHT22;27353;50.906;7.248;2023-01-05T09:30:56;10.70;99.90
41664;DHT22;27353;50.906;7.248;2023-01-05T09:33:22;10.70;99.90
41664;DHT22;27353;50.906;7.248;2023-01-05T09:35:53;10.70;99.90
41664;DHT22;27353;50.906;7.248;2023-01-05T09:38:19;10.70;99.90
41664;DHT22;27353;50.906;7.248;2023-01-05T09:40:45;10.80;99.90
41664;DHT22;27353;50.906;7.248;2023-01-05T09:43:26;10.80;99.90
41664;DHT22;27353;50.906;7.248;2023-01-05T09:45:53;10.90;99.90
41664;DHT22;27353;50.906;7.248;2023-01-05T09:48:20;11.00;99.90
41664;DHT22;27353;50.906;7.248;2023-01-05T09:50:48;11.00;99.90
41664;DHT22;27353;50.906;7.248;2023-01-05T09:53:18;11.10;99.90
41664;DHT22;27353;50.906;7.248;2023-01-05T09:55:48;11.20;99.90
41664;DHT22;27353;50.906;7.248;2023-01-05T09:58:20;11.20;99.90
41664;DHT22;27353;50.906;7.248;2023-01-05T10:01:03;11.20;99.90
41664;DHT22;27353;50.906;7.248;2023-01-05T10:03:30;11.20;99.90
41664;DHT22;27353;50.906;7.248;2023-01-05T10:05:58;11.10;99.90
41664;DHT22;27353;50.906;7.248;2023-01-05T10:08:32;11.10;99.90
41664;DHT22;27353;50.906;7.248;2023-01-05T10:14:40;11.30;99.90
41664;DHT22;27353;50.906;7.248;2023-01-05T10:17:12;11.30;99.90
41664;DHT22;27353;50.906;7.248;2023-01-05T10:19:38;11.20;99.90
41664;DHT22;27353;50.906;7.248;2023-01-05T10:24:56;11.10;99.90
41664;DHT22;27353;50.906;7.248;2023-01-05T10:27:27;11.10;99.90
41664;DHT22;27353;50.906;7.248;2023-01-05T10:30:26;11.00;99.90
41664;DHT22;27353;50.906;7.248;2023-01-05T10:38:40;11.00;99.90
41664;DHT22;27353;50.906;7.248;2023-01-05T10:46:42;11.10;99.90
41664;DHT22;27353;50.906;7.248;2023-01-05T10:49:18;11.10;99.90
41664;DHT22;27353;50.906;7.248;2023-01-05T10:51:44;11.00;99.90
41664;DHT22;27353;50.906;7.248;2023-01-05T10:54:23;11.00;99.90
41664;DHT22;27353;50.906;7.248;2023-01-05T10:56:50;11.00;99.90
41664;DHT22;27353;50.906;7.248;2023-01-05T10:59:15;10.90;99.90
41664;DHT22;27353;50.906;7.248;2023-01-05T11:01:46;11.00;99.90
41664;DHT22;27353;50.906;7.248;2023-01-05T11:04:21;11.00;99.90
41664;DHT22;27353;50.906;7.248;2023-01-05T11:06:48;11.00;99.90
41664;DHT22;27353;50.906;7.248;2023-01-05T11:09:17;11.00;99.90
41664;DHT22;27353;50.906;7.248;2023-01-05T11:11:54;11.00;99.90
41664;DHT22;27353;50.906;7.248;2023-01-05T11:14:21;11.20;99.90
41664;DHT22;27353;50.906;7.248;2023-01-05T11:16:52;11.30;99.90
41664;DHT22;27353;50.906;7.248;2023-01-05T11:19:21;11.40;99.90
41664;DHT22;27353;50.906;7.248;2023-01-05T11:21:50;11.50;99.90
41664;DHT22;27353;50.906;7.248;2023-01-05T11:24:34;11.50;99.90
41664;DHT22;27353;50.906;7.248;2023-01-05T11:27:02;11.40;99.90
41664;DHT22;27353;50.906;7.248;2023-01-05T11:29:29;11.40;99.90
41664;DHT22;27353;50.906;7.248;2023-01-05T11:32:04;11.30;99.90
41664;DHT22;27353;50.906;7.248;2023-01-05T11:34:45;11.20;99.90
41664;DHT22;27353;50.906;7.248;2023-01-05T11:37:13;11.30;99.90
41664;DHT22;27353;50.906;7.248;2023-01-05T11:44:58;11.30;99.90
41664;DHT22;27353;50.906;7.248;2023-01-05T11:50:03;11.20;99.90
41664;DHT22;27353;50.906;7.248;2023-01-05T11:53:09;11.40;99.90
41664;DHT22;27353;50.906;7.248;2023-01-05T11:58:22;11.90;99.90
41664;DHT22;27353;50.906;7.248;2023-01-05T12:22:46;12.10;99.90
41664;DHT22;27353;50.906;7.248;2023-01-05T12:25:41;12.10;99.90
41664;DHT22;27353;50.906;7.248;2023-01-05T12:30:59;12.20;99.90
41664;DHT22;27353;50.906;7.248;2023-01-05T12:33:50;12.40;99.90
41664;DHT22;27353;50.906;7.248;2023-01-05T12:36:43;12.40;99.90
41664;DHT22;27353;50.906;7.248;2023-01-05T12:39:45;12.40;99.90
41664;DHT22;27353;50.906;7.248;2023-01-05T12:56:24;12.20;99.90
41664;DHT22;27353;50.906;7.248;2023-01-05T13:01:37;11.80;99.90
41664;DHT22;27353;50.906;7.248;2023-01-05T13:04:31;11.80;99.90
41664;DHT22;27353;50.906;7.248;2023-01-05T13:06:59;11.70;99.90
41664;DHT22;27353;50.906;7.248;2023-01-05T13:09:30;11.90;99.90
41664;DHT22;27353;50.906;7.248;2023-01-05T13:12:04;12.20;99.90
41664;DHT22;27353;50.906;7.248;2023-01-05T13:14:35;12.40;99.90
41664;DHT22;27353;50.906;7.248;2023-01-05T13:19:54;12.80;99.90
41664;DHT22;27353;50.906;7.248;2023-01-05T13:22:30;12.80;99.90
41664;DHT22;27353;50.906;7.248;2023-01-05T13:25:07;12.80;99.90
41664;DHT22;27353;50.906;7.248;2023-01-05T13:27:38;12.70;99.90
41664;DHT22;27353;50.906;7.248;2023-01-05T13:30:05;12.50;99.90
41664;DHT22;27353;50.906;7.248;2023-01-05T13:36:08;12.10;99.90
41664;DHT22;27353;50.906;7.248;2023-01-05T13:52:41;11.70;99.90
41664;DHT22;27353;50.906;7.248;2023-01-05T13:55:13;11.70;99.90
41664;DHT22;27353;50.906;7.248;2023-01-05T13:57:41;11.70;99.90
41664;DHT22;27353;50.906;7.248;2023-01-05T14:00:20;11.70;99.90
41664;DHT22;27353;50.906;7.248;2023-01-05T14:03:06;11.70;99.90
41664;DHT22;27353;50.906;7.248;2023-01-05T14:05:55;11.60;99.90
41664;DHT22;27353;50.906;7.248;2023-01-05T14:08:33;11.70;99.90
41664;DHT22;27353;50.906;7.248;2023-01-05T14:11:18;11.60;99.90
41664;DHT22;27353;50.906;7.248;2023-01-05T14:13:51;11.50;99.90
41664;DHT22;27353;50.906;7.248;2023-01-05T14:27:00;11.40;99.90
41664;DHT22;27353;50.906;7.248;2023-01-05T14:32:28;11.20;99.90
41664;DHT22;27353;50.906;7.248;2023-01-05T14:35:05;11.20;99.90
41664;DHT22;27353;50.906;7.248;2023-01-05T14:37:40;11.20;99.90
41664;DHT22;27353;50.906;7.248;2023-01-05T14:48:43;11.20;99.90
41664;DHT22;27353;50.906;7.248;2023-01-05T14:53:47;11.20;99.90
41664;DHT22;27353;50.906;7.248;2023-01-05T14:56:14;11.20;99.90
41664;DHT22;27353;50.906;7.248;2023-01-05T15:03:50;11.10;99.90
41664;DHT22;27353;50.906;7.248;2023-01-05T15:09:20;11.20;99.90
41664;DHT22;27353;50.906;7.248;2023-01-05T15:18:04;11.10;99.90
41664;DHT22;27353;50.906;7.248;2023-01-05T15:26:07;11.10;99.90
41664;DHT22;27353;50.906;7.248;2023-01-05T15:31:40;11.00;99.90
41664;DHT22;27353;50.906;7.248;2023-01-05T15:34:26;11.00;99.90
41664;DHT22;27353;50.906;7.248;2023-01-05T15:39:47;11.00;99.90
41664;DHT22;27353;50.906;7.248;2023-01-05T15:42:40;11.00;99.90
41664;DHT22;27353;50.906;7.248;2023-01-05T15:45:18;10.90;99.90
41664;DHT22;27353;50.906;7.248;2023-01-05T15:47:46;10.90;99.90
41664;DHT22;27353;50.906;7.248;2023-01-05T15:50:24;10.90;99.90
41664;DHT22;27353;50.906;7.248;2023-01-05T15:52:59;10.80;99.90
41664;DHT22;27353;50.906;7.248;2023-01-05T15:55:26;10.70;99.90
41664;DHT22;27353;50.906;7.248;2023-01-05T15:57:53;10.80;99.90
41664;DHT22;27353;50.906;7.248;2023-01-05T16:00:28;10.80;99.90
41664;DHT22;27353;50.906;7.248;2023-01-05T16:02:54;10.80;99.90
41664;DHT22;27353;50.906;7.248;2023-01-05T16:07:57;10.80;99.90
41664;DHT22;27353;50.906;7.248;2023-01-05T16:10:57;10.70;99.90
41664;DHT22;27353;50.906;7.248;2023-01-05T16:13:16;10.70;99.90
41664;DHT22;27353;50.906;7.248;2023-01-05T16:15:45;10.70;99.90
41664;DHT22;27353;50.906;7.248;2023-01-05T16:18:19;10.70;99.90
41664;DHT22;27353;50.906;7.248;2023-01-05T16:20:48;10.60;99.90
41664;DHT22;27353;50.906;7.248;2023-01-05T16:23:22;10.60;99.90
41664;DHT22;27353;50.906;7.248;2023-01-05T16:25:55;10.60;99.90
41664;DHT22;27353;50.906;7.248;2023-01-05T16:28:23;10.50;99.90
41664;DHT22;27353;50.906;7.248;2023-01-05T16:30:50;10.50;99.90
41664;DHT22;27353;50.906;7.248;2023-01-05T16:33:31;10.50;99.90
41664;DHT22;27353;50.906;7.248;2023-01-05T16:36:07;10.50;99.90
41664;DHT22;27353;50.906;7.248;2023-01-05T16:38:34;10.50;99.90
41664;DHT22;27353;50.906;7.248;2023-01-05T16:41:12;10.50;99.90
41664;DHT22;27353;50.906;7.248;2023-01-05T16:53:44;10.10;99.90
41664;DHT22;27353;50.906;7.248;2023-01-05T16:56:20;10.10;99.90
41664;DHT22;27353;50.906;7.248;2023-01-05T16:58:46;10.00;99.90
41664;DHT22;27353;50.906;7.248;2023-01-05T17:03:38;9.90;99.90
41664;DHT22;27353;50.906;7.248;2023-01-05T17:06:04;9.90;99.90
41664;DHT22;27353;50.906;7.248;2023-01-05T17:08:32;9.90;99.90
41664;DHT22;27353;50.906;7.248;2023-01-05T17:11:02;9.80;99.90
41664;DHT22;27353;50.906;7.248;2023-01-05T17:13:35;9.80;99.90
41664;DHT22;27353;50.906;7.248;2023-01-05T17:16:02;9.90;99.90
41664;DHT22;27353;50.906;7.248;2023-01-05T17:18:30;9.80;99.90
41664;DHT22;27353;50.906;7.248;2023-01-05T17:20:57;9.80;99.90
41664;DHT22;27353;50.906;7.248;2023-01-05T17:23:50;9.80;99.90
41664;DHT22;27353;50.906;7.248;2023-01-05T17:26:43;9.80;99.90
41664;DHT22;27353;50.906;7.248;2023-01-05T17:29:23;9.80;99.90
41664;DHT22;27353;50.906;7.248;2023-01-05T17:31:49;9.80;99.90
41664;DHT22;27353;50.906;7.248;2023-01-05T17:34:15;9.70;99.90
41664;DHT22;27353;50.906;7.248;2023-01-05T17:36:41;9.70;99.90
41664;DHT22;27353;50.906;7.248;2023-01-05T17:39:07;9.70;99.90
41664;DHT22;27353;50.906;7.248;2023-01-05T17:41:33;9.70;99.90
41664;DHT22;27353;50.906;7.248;2023-01-05T17:43:58;9.70;99.90
41664;DHT22;27353;50.906;7.248;2023-01-05T17:46:28;9.60;99.90
41664;DHT22;27353;50.906;7.248;2023-01-05T17:48:54;9.60;99.90
41664;DHT22;27353;50.906;7.248;2023-01-05T17:51:21;9.50;99.90
41664;DHT22;27353;50.906;7.248;2023-01-05T17:53:46;9.50;99.90
41664;DHT22;27353;50.906;7.248;2023-01-05T17:56:12;9.50;99.90
41664;DHT22;27353;50.906;7.248;2023-01-05T17:58:37;9.60;99.90
41664;DHT22;27353;50.906;7.248;2023-01-05T18:01:04;9.50;99.90
41664;DHT22;27353;50.906;7.248;2023-01-05T18:03:31;9.50;99.90
41664;DHT22;27353;50.906;7.248;2023-01-05T18:05:59;9.50;99.90
41664;DHT22;27353;50.906;7.248;2023-01-05T18:08:25;9.50;99.90
41664;DHT22;27353;50.906;7.248;2023-01-05T18:10:51;9.50;99.90
41664;DHT22;27353;50.906;7.248;2023-01-05T18:13:17;9.50;99.90
41664;DHT22;27353;50.906;7.248;2023-01-05T18:15:45;9.50;99.90
41664;DHT22;27353;50.906;7.248;2023-01-05T18:18:12;9.50;99.90
41664;DHT22;27353;50.906;7.248;2023-01-05T18:20:41;9.50;99.90
41664;DHT22;27353;50.906;7.248;2023-01-05T18:23:07;9.50;99.90
41664;DHT22;27353;50.906;7.248;2023-01-05T18:25:33;9.50;99.90
41664;DHT22;27353;50.906;7.248;2023-01-05T18:27:59;9.50;99.90
41664;DHT22;27353;50.906;7.248;2023-01-05T18:30:25;9.50;99.90
41664;DHT22;27353;50.906;7.248;2023-01-05T18:32:51;9.50;99.90
41664;DHT22;27353;50.906;7.248;2023-01-05T18:35:17;9.40;99.90
41664;DHT22;27353;50.906;7.248;2023-01-05T18:37:42;9.50;99.90
41664;DHT22;27353;50.906;7.248;2023-01-05T18:40:09;9.50;99.90
41664;DHT22;27353;50.906;7.248;2023-01-05T18:42:35;9.50;99.90
41664;DHT22;27353;50.906;7.248;2023-01-05T18:45:01;9.50;99.90
41664;DHT22;27353;50.906;7.248;2023-01-05T18:47:27;9.50;99.90